Time;durP1;ratioP1;P1;durP2;ratioP2;P2;SDS_P1;SDS_P2;PMS_P1;PMS_P2;Temp;Humidity;BMP_temperature;BMP_pressure;BME280_temperature;BME280_humidity;BME280_pressure;Samples;Min_cycle;Max_cycle;Signal;HPM_P1;HPM_P2
2021/06/27 00:00:43;;;;;;;22.40;11.25;;;;;;;17.77;75.92;100512.56;129142;1093;22771;-60
2021/06/27 00:03:24;;;;;;;22.65;11.60;;;;;;;17.77;76.41;100515.38;125920;1093;25726;-57
2021/06/27 00:06:01;;;;;;;18.60;10.55;;;;;;;17.76;76.10;100517.44;126245;1093;22794;-60
2021/06/27 00:08:47;;;;;;;19.93;11.67;;;;;;;17.77;76.23;100521.03;126139;1092;22795;-60
2021/06/27 00:11:23;;;;;;;20.25;11.20;;;;;;;17.77;76.43;100521.03;126049;1092;23043;-59
2021/06/27 00:14:12;;;;;;;21.13;11.77;;;;;;;17.77;76.57;100518.20;126203;1093;22770;-60
2021/06/27 00:16:53;;;;;;;19.60;11.15;;;;;;;17.77;76.80;100518.95;126182;1093;27988;-61
2021/06/27 00:19:32;;;;;;;19.60;11.13;;;;;;;17.79;76.57;100518.45;126172;1091;22773;-60
2021/06/27 00:22:20;;;;;;;21.07;11.63;;;;;;;17.78;76.45;100516.91;127130;1093;22806;-61
2021/06/27 00:25:23;;;;;;;20.80;12.08;;;;;;;17.81;76.95;100529.22;126148;1093;24307;-59
2021/06/27 00:28:08;;;;;;;20.85;11.90;;;;;;;17.80;76.52;100522.80;125894;1092;22797;-61
2021/06/27 00:30:43;;;;;;;21.27;11.50;;;;;;;17.81;76.70;100526.39;126072;1093;22794;-59
2021/06/27 00:33:15;;;;;;;23.03;11.60;;;;;;;17.81;77.22;100520.75;126374;1092;22770;-61
2021/06/27 00:35:52;;;;;;;22.55;11.70;;;;;;;17.83;76.87;100523.81;126265;1093;22754;-63
2021/06/27 00:38:25;;;;;;;23.03;12.73;;;;;;;17.84;77.38;100523.28;127203;1093;22831;-62
2021/06/27 00:40:57;;;;;;;20.40;11.85;;;;;;;17.84;77.49;100523.28;126509;1092;22779;-61
2021/06/27 00:43:29;;;;;;;22.27;12.53;;;;;;;17.85;77.46;100524.06;126101;1092;22770;-59
2021/06/27 00:46:03;;;;;;;23.03;12.60;;;;;;;17.85;77.26;100529.70;126103;1092;23006;-58
2021/06/27 00:48:35;;;;;;;24.17;14.53;;;;;;;17.86;77.51;100529.17;126207;1093;22775;-59
2021/06/27 00:51:08;;;;;;;22.53;12.80;;;;;;;17.87;77.40;100529.95;126271;1093;26279;-58
2021/06/27 00:53:40;;;;;;;21.80;12.50;;;;;;;17.85;77.33;100530.48;125924;1093;22858;-60
2021/06/27 00:56:13;;;;;;;21.05;12.35;;;;;;;17.84;77.33;100526.11;126303;1093;22778;-61
2021/06/27 00:58:46;;;;;;;21.13;12.73;;;;;;;17.82;77.45;100528.69;125859;1093;22759;-61
2021/06/27 01:01:19;;;;;;;24.47;13.10;;;;;;;17.81;77.75;100518.70;125371;1093;22770;-58
2021/06/27 01:03:51;;;;;;;22.65;12.05;;;;;;;17.80;77.40;100522.80;125786;1093;22824;-58
2021/06/27 01:06:24;;;;;;;22.57;12.33;;;;;;;17.78;77.88;100519.73;125775;1093;23261;-58
2021/06/27 01:09:00;;;;;;;22.90;11.85;;;;;;;17.76;77.51;100525.91;126175;1093;22757;-58
2021/06/27 01:11:34;;;;;;;26.85;13.10;;;;;;;17.75;77.85;100524.36;125805;1093;25552;-58
2021/06/27 01:14:06;;;;;;;21.85;11.40;;;;;;;17.74;77.56;100524.89;125866;1093;22770;-59
2021/06/27 01:16:40;;;;;;;20.70;11.90;;;;;;;17.72;77.96;100522.59;125857;1092;22764;-58
2021/06/27 01:19:12;;;;;;;19.17;11.27;;;;;;;17.71;77.56;100521.05;125759;1093;22770;-57
2021/06/27 01:21:45;;;;;;;19.45;11.00;;;;;;;17.69;77.33;100517.98;125864;1093;24336;-59
2021/06/27 01:24:17;;;;;;;20.73;12.10;;;;;;;17.66;77.46;100521.86;125959;1093;22763;-58
2021/06/27 01:26:49;;;;;;;25.17;12.70;;;;;;;17.64;77.35;100527.27;125654;1093;22767;-58
2021/06/27 01:29:20;;;;;;;24.95;11.85;;;;;;;17.61;77.49;100514.17;125871;1093;22765;-59
2021/06/27 01:31:52;;;;;;;22.83;10.77;;;;;;;17.58;77.61;100508.81;125954;1093;22847;-58
2021/06/27 01:34:23;;;;;;;24.23;11.63;;;;;;;17.53;77.56;100516.02;125696;1093;22819;-59
2021/06/27 01:36:55;;;;;;;39.05;27.10;;;;;;;17.50;77.55;100519.12;125919;1093;22767;-58
2021/06/27 01:39:27;;;;;;;39.80;28.30;;;;;;;17.45;77.41;100508.58;125890;1093;24432;-58
2021/06/27 01:42:02;;;;;;;26.80;16.60;;;;;;;17.41;77.97;100506.04;125890;1093;22751;-57
2021/06/27 01:44:36;;;;;;;26.00;15.70;;;;;;;17.38;77.69;100501.42;125891;1093;22852;-59
2021/06/27 01:47:11;;;;;;;21.60;12.47;;;;;;;17.36;77.46;100508.89;125895;1092;22768;-58
2021/06/27 01:49:44;;;;;;;20.30;11.60;;;;;;;17.31;77.71;100499.16;125961;1092;22917;-58
2021/06/27 01:52:16;;;;;;;18.85;11.20;;;;;;;17.27;77.60;100492.25;127902;1092;27192;-59
2021/06/27 01:54:47;;;;;;;19.40;11.35;;;;;;;17.23;77.51;100492.53;125877;1093;22771;-59
2021/06/27 01:57:21;;;;;;;19.35;11.25;;;;;;;17.20;77.45;100482.27;126591;1093;22985;-58
2021/06/27 01:59:53;;;;;;;22.40;11.50;;;;;;;17.18;77.67;100492.53;126097;1093;26255;-59
2021/06/27 02:02:25;;;;;;;21.90;13.00;;;;;;;17.12;77.77;100488.97;125827;1092;22783;-58
2021/06/27 02:04:57;;;;;;;21.40;10.75;;;;;;;17.08;77.58;100500.52;125770;1091;27016;-59
2021/06/27 02:07:30;;;;;;;21.65;11.40;;;;;;;17.03;77.80;100492.84;126468;1093;26109;-59
2021/06/27 02:10:04;;;;;;;20.77;11.67;;;;;;;16.97;77.55;100498.50;126047;1093;22773;-60
2021/06/27 02:12:39;;;;;;;22.30;12.85;;;;;;;16.92;78.05;100496.45;126452;1093;22858;-59
2021/06/27 02:15:14;;;;;;;21.93;11.43;;;;;;;16.90;77.89;100498.28;126173;1092;22710;-61
2021/06/27 02:18:01;;;;;;;16.90;10.00;;;;;;;16.84;77.80;100489.81;125954;1093;23506;-59
2021/06/27 02:20:37;;;;;;;21.60;10.50;;;;;;;16.81;77.71;100493.68;126249;1092;22764;-61
2021/06/27 02:23:11;;;;;;;18.90;10.00;;;;;;;16.78;77.71;100491.13;125920;1092;22875;-60
2021/06/27 02:25:43;;;;;;;18.60;10.00;;;;;;;16.74;77.53;100494.20;125981;1092;24464;-59
2021/06/27 02:28:15;;;;;;;21.25;11.85;;;;;;;16.71;77.78;100497.28;125984;1093;22794;-59
2021/06/27 02:30:48;;;;;;;19.70;11.00;;;;;;;16.66;77.73;100496.01;125918;1093;26321;-61
2021/06/27 02:33:22;;;;;;;20.75;10.75;;;;;;;16.63;77.48;100499.09;125820;1093;24429;-59
2021/06/27 02:35:56;;;;;;;16.75;9.85;;;;;;;16.58;77.60;100494.22;125786;1093;24507;-59
2021/06/27 02:38:28;;;;;;;19.90;10.15;;;;;;;16.52;77.31;100502.70;125810;1093;27491;-56
2021/06/27 02:41:00;;;;;;;18.55;10.30;;;;;;;16.50;77.63;100507.30;126042;1093;24420;-60
2021/06/27 02:43:31;;;;;;;19.85;9.00;;;;;;;16.47;77.63;100505.50;125972;1092;22790;-59
2021/06/27 02:46:04;;;;;;;18.75;9.55;;;;;;;16.42;77.31;100495.77;125893;1092;24483;-59
2021/06/27 02:48:36;;;;;;;20.95;9.95;;;;;;;16.39;77.31;100502.41;126053;1093;26040;-60
2021/06/27 02:51:11;;;;;;;22.15;10.70;;;;;;;16.37;77.49;100502.16;125846;1093;22775;-57
2021/06/27 02:53:44;;;;;;;21.00;10.95;;;;;;;16.34;77.48;100499.61;125927;1093;23021;-56
2021/06/27 02:56:15;;;;;;;21.80;12.00;;;;;;;16.31;77.81;100495.75;125974;1093;22928;-58
2021/06/27 02:58:48;;;;;;;21.95;11.15;;;;;;;16.29;77.98;100501.14;125795;1093;22726;-59
2021/06/27 03:01:21;;;;;;;21.90;10.70;;;;;;;16.26;77.74;100495.77;126196;1093;24615;-58
2021/06/27 03:03:53;;;;;;;23.60;11.55;;;;;;;16.25;78.59;100494.98;126003;1093;22793;-57
2021/06/27 03:06:25;;;;;;;21.80;12.47;;;;;;;16.24;78.17;100498.33;125909;1093;22973;-57
2021/06/27 03:08:57;;;;;;;22.40;11.20;;;;;;;16.22;78.37;100490.39;125852;1093;25954;-57
2021/06/27 03:11:28;;;;;;;22.55;12.00;;;;;;;16.21;78.58;100486.03;125859;1093;22776;-60
2021/06/27 03:14:00;;;;;;;23.17;13.30;;;;;;;16.20;78.55;100481.69;125842;1093;24343;-61
2021/06/27 03:16:31;;;;;;;22.50;11.80;;;;;;;16.21;78.79;100491.66;125852;1093;22816;-58
2021/06/27 03:19:02;;;;;;;22.50;12.35;;;;;;;16.20;79.15;100487.33;125910;1093;26901;-58
2021/06/27 03:21:34;;;;;;;21.90;13.30;;;;;;;16.19;78.74;100480.91;125875;1093;25848;-58
2021/06/27 03:24:07;;;;;;;24.80;12.70;;;;;;;16.21;79.07;100477.58;125818;1093;22852;-59
2021/06/27 03:26:39;;;;;;;21.65;12.55;;;;;;;16.18;78.92;100482.18;125943;1093;26591;-58
2021/06/27 03:29:11;;;;;;;21.85;12.25;;;;;;;16.16;78.84;100475.52;125979;1093;22889;-60
2021/06/27 03:31:43;;;;;;;24.93;11.67;;;;;;;16.15;78.80;100477.59;125885;1093;23056;-60
2021/06/27 03:34:15;;;;;;;20.90;11.90;;;;;;;16.14;78.80;100469.63;125879;1093;27341;-56
2021/06/27 03:36:47;;;;;;;23.80;11.20;;;;;;;16.11;79.04;100467.85;125830;1093;25842;-59
2021/06/27 03:39:19;;;;;;;20.53;10.03;;;;;;;16.10;78.83;100477.56;125968;1093;22764;-56
2021/06/27 03:41:53;;;;;;;19.45;10.25;;;;;;;16.10;79.16;100471.94;125962;1093;23327;-59
2021/06/27 03:44:26;;;;;;;18.05;9.90;;;;;;;16.08;79.29;100480.91;125928;1093;22919;-58
2021/06/27 03:46:58;;;;;;;19.30;11.30;;;;;;;16.07;79.47;100470.94;125975;1093;22804;-57
2021/06/27 03:49:30;;;;;;;20.83;12.17;;;;;;;16.07;79.55;100470.16;125983;1093;25317;-59
2021/06/27 03:52:03;;;;;;;22.40;11.97;;;;;;;16.08;79.14;100468.86;125988;1093;22772;-61
2021/06/27 03:54:36;;;;;;;24.70;12.70;;;;;;;16.11;79.58;100467.85;125869;1092;22764;-60
2021/06/27 03:57:09;;;;;;;22.85;12.90;;;;;;;16.15;80.11;100471.18;125899;1092;22767;-58
2021/06/27 03:59:40;;;;;;;26.75;14.15;;;;;;;16.18;80.31;100475.77;125836;1093;22778;-57
2021/06/27 04:02:12;;;;;;;24.30;14.50;;;;;;;16.21;80.17;100471.95;125985;1093;24271;-59
2021/06/27 04:04:44;;;;;;;26.30;15.00;;;;;;;16.25;80.30;100469.64;125790;1092;22788;-58
2021/06/27 04:07:15;;;;;;;25.40;15.50;;;;;;;16.29;80.47;100478.59;125817;1093;22851;-59
2021/06/27 04:09:47;;;;;;;27.20;16.10;;;;;;;16.34;80.42;100474.25;125981;1093;22797;-60
2021/06/27 04:12:18;;;;;;;24.95;15.40;;;;;;;16.38;80.85;100474.75;125971;1092;22964;-59
2021/06/27 04:14:50;;;;;;;25.35;14.15;;;;;;;16.42;80.80;100472.45;126096;1092;22791;-61
2021/06/27 04:17:22;;;;;;;24.95;14.80;;;;;;;16.45;80.47;100474.25;125953;1093;24605;-58
2021/06/27 04:19:58;;;;;;;25.80;15.60;;;;;;;16.48;81.09;100476.02;126201;1093;22906;-61
2021/06/27 04:22:30;;;;;;;30.10;16.35;;;;;;;16.49;80.87;100483.20;126041;1092;22922;-61
2021/06/27 04:25:02;;;;;;;26.60;15.50;;;;;;;16.52;81.11;100474.52;125923;1093;26255;-58
2021/06/27 04:27:36;;;;;;;26.15;14.30;;;;;;;16.57;81.31;100476.56;125878;1093;24043;-58
2021/06/27 04:30:10;;;;;;;29.30;15.40;;;;;;;16.61;81.00;100476.30;125875;1092;22807;-58
2021/06/27 04:32:42;;;;;;;23.45;14.70;;;;;;;16.66;81.29;100476.28;125888;1093;22764;-59
2021/06/27 04:35:13;;;;;;;25.70;15.10;;;;;;;16.71;81.09;100472.69;125973;1093;23005;-59
2021/06/27 04:37:45;;;;;;;25.10;14.80;;;;;;;16.75;81.45;100470.38;126020;1093;22824;-58
2021/06/27 04:40:17;;;;;;;26.20;15.95;;;;;;;16.80;81.14;100480.11;125875;1093;22767;-58
2021/06/27 04:42:48;;;;;;;25.93;14.60;;;;;;;16.83;81.38;100479.83;125903;1092;23000;-59
2021/06/27 04:45:20;;;;;;;24.30;14.95;;;;;;;16.88;81.65;100483.92;125874;1091;27312;-59
2021/06/27 04:47:52;;;;;;;28.83;14.90;;;;;;;16.92;81.62;100487.99;125877;1093;25647;-59
2021/06/27 04:50:24;;;;;;;24.15;14.30;;;;;;;16.97;81.60;100487.22;125944;1093;22778;-57
2021/06/27 04:52:55;;;;;;;27.65;16.05;;;;;;;17.06;81.43;100488.22;125857;1093;25982;-59
2021/06/27 04:55:26;;;;;;;26.30;14.65;;;;;;;17.13;81.60;100485.64;125892;1093;30302;-58
2021/06/27 04:58:06;;;;;;;29.15;15.80;;;;;;;17.22;81.65;100487.38;125761;1093;22775;-59
2021/06/27 05:00:38;;;;;;;26.20;15.25;;;;;;;17.27;81.52;100487.38;125916;1093;22784;-58
2021/06/27 05:03:10;;;;;;;26.50;13.10;;;;;;;17.34;81.89;100491.72;126049;1093;26395;-60
2021/06/27 05:05:41;;;;;;;25.95;14.40;;;;;;;17.39;81.69;100488.08;126019;1092;22763;-61
2021/06/27 05:08:14;;;;;;;23.70;13.15;;;;;;;17.45;81.41;100500.11;126009;1093;26338;-59
2021/06/27 05:10:46;;;;;;;27.23;15.60;;;;;;;17.50;81.39;100499.36;125891;1093;22804;-59
2021/06/27 05:13:17;;;;;;;22.70;13.27;;;;;;;17.61;81.64;100496.46;125945;1093;27284;-59
2021/06/27 05:15:48;;;;;;;24.40;13.20;;;;;;;17.72;81.99;100497.18;125792;1093;22771;-59
2021/06/27 05:18:20;;;;;;;25.75;14.15;;;;;;;17.82;81.31;100489.16;125984;1093;22813;-59
2021/06/27 05:20:53;;;;;;;23.85;13.70;;;;;;;17.90;81.17;100487.30;126199;1092;22797;-57
2021/06/27 05:23:24;;;;;;;22.00;13.75;;;;;;;17.95;81.02;100488.55;125977;1093;26248;-58
2021/06/27 05:25:56;;;;;;;28.60;14.90;;;;;;;18.01;80.94;100492.88;126176;1093;27669;-58
2021/06/27 05:28:27;;;;;;;23.17;13.93;;;;;;;18.07;81.08;100502.08;125842;1093;22847;-58
2021/06/27 05:31:00;;;;;;;29.80;13.90;;;;;;;18.14;81.27;100498.70;125764;1093;24467;-59
2021/06/27 05:33:33;;;;;;;22.60;14.33;;;;;;;18.22;81.17;100507.36;126051;1093;22777;-59
2021/06/27 05:36:05;;;;;;;24.23;13.47;;;;;;;18.26;80.73;100496.53;125848;1093;22794;-59
2021/06/27 05:38:37;;;;;;;26.40;13.95;;;;;;;18.32;80.74;100503.68;125828;1093;22841;-59
2021/06/27 05:41:08;;;;;;;25.73;13.57;;;;;;;18.37;80.56;100502.85;125759;1093;22748;-60
2021/06/27 05:43:40;;;;;;;22.63;11.90;;;;;;;18.45;80.29;100503.09;125800;1093;22772;-59
2021/06/27 05:46:12;;;;;;;24.55;12.60;;;;;;;18.51;79.90;100507.41;125730;1093;22785;-58
2021/06/27 05:48:43;;;;;;;22.55;13.15;;;;;;;18.51;79.87;100504.58;125750;1093;23505;-59
2021/06/27 05:51:16;;;;;;;22.80;12.45;;;;;;;18.56;80.15;100506.57;126922;1093;27198;-59
2021/06/27 05:53:48;;;;;;;23.95;11.30;;;;;;;18.64;80.00;100509.61;125802;1093;24467;-59
2021/06/27 05:56:20;;;;;;;17.80;9.85;;;;;;;18.65;79.67;100508.30;125860;1093;22815;-59
2021/06/27 05:58:51;;;;;;;23.70;12.00;;;;;;;18.64;79.39;100509.61;126061;1093;22793;-59
2021/06/27 06:01:22;;;;;;;24.93;11.50;;;;;;;18.64;79.43;100503.95;125780;1093;22847;-58
2021/06/27 06:03:59;;;;;;;23.00;12.13;;;;;;;18.69;79.20;100513.65;125870;1092;22728;-58
2021/06/27 06:06:31;;;;;;;20.10;10.50;;;;;;;18.73;78.88;100514.13;126123;1093;22842;-60
2021/06/27 06:09:05;;;;;;;24.13;10.27;;;;;;;18.76;78.79;100507.42;126037;1093;22794;-60
2021/06/27 06:11:37;;;;;;;19.53;10.20;;;;;;;18.81;78.75;100503.78;125979;1093;23306;-59
2021/06/27 06:14:12;;;;;;;22.63;10.55;;;;;;;18.85;78.69;100509.91;125918;1093;22842;-59
2021/06/27 06:16:46;;;;;;;20.10;10.30;;;;;;;18.88;78.40;100511.66;125770;1093;26283;-58
2021/06/27 06:19:19;;;;;;;19.85;10.30;;;;;;;18.96;78.87;100515.44;125884;1093;27188;-58
2021/06/27 06:21:51;;;;;;;19.63;8.80;;;;;;;19.06;78.01;100514.55;126012;1093;22770;-58
2021/06/27 06:24:23;;;;;;;20.80;10.68;;;;;;;19.14;77.48;100509.08;125879;1093;22776;-59
2021/06/27 06:26:55;;;;;;;19.15;10.35;;;;;;;19.11;77.16;100512.96;125922;1093;27651;-59
2021/06/27 06:29:27;;;;;;;21.63;9.90;;;;;;;19.04;76.28;100514.31;125682;1093;22867;-56
2021/06/27 06:31:58;;;;;;;21.25;9.85;;;;;;;18.97;76.73;100520.58;125926;1093;22921;-58
2021/06/27 06:34:32;;;;;;;18.00;9.70;;;;;;;18.93;76.79;100516.51;125872;1093;26245;-60
2021/06/27 06:37:04;;;;;;;15.75;9.45;;;;;;;18.94;76.72;100509.54;125965;1093;23188;-58
2021/06/27 06:39:35;;;;;;;18.87;9.17;;;;;;;18.91;76.30;100516.27;125965;1093;27201;-59
2021/06/27 06:42:10;;;;;;;19.20;9.00;;;;;;;18.92;76.56;100512.13;125847;1092;25487;-59
2021/06/27 06:44:45;;;;;;;18.83;10.90;;;;;;;18.92;76.14;100504.42;126108;1093;22783;-61
2021/06/27 06:47:17;;;;;;;25.07;10.50;;;;;;;18.99;76.12;100505.90;125865;1093;22777;-60
2021/06/27 06:49:49;;;;;;;20.18;10.60;;;;;;;19.05;75.90;100503.77;125827;1093;27800;-60
2021/06/27 06:52:20;;;;;;;19.48;9.23;;;;;;;19.09;76.00;100504.23;125893;1093;24468;-60
2021/06/27 06:54:51;;;;;;;19.63;10.23;;;;;;;19.17;75.71;100493.84;125938;1093;22787;-59
2021/06/27 06:57:23;;;;;;;16.55;9.25;;;;;;;19.22;75.22;100502.27;125867;1093;24837;-59
2021/06/27 06:59:54;;;;;;;18.15;8.50;;;;;;;19.33;75.45;100504.19;125951;1093;23244;-60
2021/06/27 07:02:25;;;;;;;19.27;8.77;;;;;;;19.42;75.49;100492.53;125844;1093;27186;-60
2021/06/27 07:04:57;;;;;;;17.13;9.33;;;;;;;19.55;75.18;100498.30;125854;1093;26239;-58
2021/06/27 07:07:28;;;;;;;18.60;10.27;;;;;;;19.63;75.09;100502.05;125884;1093;22957;-61
2021/06/27 07:10:02;;;;;;;18.43;9.40;;;;;;;19.76;75.47;100496.43;125686;1092;22764;-64
2021/06/27 07:12:35;;;;;;;18.93;9.33;;;;;;;19.89;75.10;100492.90;127668;1093;47060;-66
2021/06/27 07:15:09;;;;;;;15.90;7.93;;;;;;;20.00;74.11;100496.34;125695;1093;22791;-65
2021/06/27 07:17:41;;;;;;;16.10;8.23;;;;;;;20.09;73.41;100489.52;125852;1093;26085;-65
2021/06/27 07:20:13;;;;;;;18.60;8.23;;;;;;;20.20;73.53;100505.59;125664;1093;22773;-64
2021/06/27 07:22:46;;;;;;;15.68;8.15;;;;;;;20.31;73.00;100509.03;125797;1093;22767;-64
2021/06/27 07:25:18;;;;;;;14.60;7.10;;;;;;;20.36;71.15;100510.98;125832;1093;22793;-64
2021/06/27 07:27:49;;;;;;;11.47;5.30;;;;;;;20.42;70.90;100502.41;125862;1092;22765;-65
2021/06/27 07:30:22;;;;;;;13.93;5.35;;;;;;;20.55;70.63;100508.86;125648;1093;28528;-67
2021/06/27 07:32:53;;;;;;;12.28;5.93;;;;;;;20.66;70.16;100508.68;126324;1093;25842;-67
2021/06/27 07:35:25;;;;;;;10.87;5.53;;;;;;;20.74;70.28;100505.95;125797;1093;27218;-65
2021/06/27 07:37:56;;;;;;;13.23;5.48;;;;;;;20.75;68.60;100505.40;125772;1093;22850;-65
2021/06/27 07:40:28;;;;;;;13.90;6.60;;;;;;;20.78;68.62;100512.06;125699;1093;24448;-67
2021/06/27 07:42:59;;;;;;;13.85;5.73;;;;;;;20.80;68.41;100517.96;125915;1093;22832;-68
2021/06/27 07:45:31;;;;;;;13.78;5.75;;;;;;;20.84;68.46;100516.34;125689;1093;22772;-66
2021/06/27 07:48:03;;;;;;;13.58;6.28;;;;;;;20.93;68.19;100509.47;126125;1093;22848;-67
2021/06/27 07:50:36;;;;;;;13.10;5.87;;;;;;;21.02;68.07;100506.24;125980;1093;23419;-66
2021/06/27 07:53:08;;;;;;;13.15;6.23;;;;;;;21.12;67.90;100506.56;125884;1092;26226;-65
2021/06/27 07:55:41;;;;;;;12.58;6.28;;;;;;;21.20;67.35;100505.36;125778;1093;22843;-66
2021/06/27 07:58:12;;;;;;;12.78;6.08;;;;;;;21.27;67.22;100503.94;125651;1092;22805;-65
2021/06/27 08:00:45;;;;;;;12.70;5.38;;;;;;;21.37;67.32;100500.11;125794;1093;22791;-63
2021/06/27 08:03:16;;;;;;;12.25;5.15;;;;;;;21.49;66.75;100507.08;126098;1092;25871;-64
2021/06/27 08:05:48;;;;;;;11.78;5.15;;;;;;;21.59;66.35;100510.22;125763;1093;23227;-67
2021/06/27 08:08:20;;;;;;;13.95;5.50;;;;;;;21.65;66.30;100508.02;125773;1093;26523;-64
2021/06/27 08:10:51;;;;;;;12.98;5.10;;;;;;;21.73;66.68;100506.80;125963;1093;22833;-65
2021/06/27 08:13:23;;;;;;;14.08;5.68;;;;;;;21.86;66.70;100508.87;125761;1093;24429;-65
2021/06/27 08:15:57;;;;;;;13.25;6.50;;;;;;;21.98;65.76;100500.83;125771;1093;26258;-64
2021/06/27 08:18:28;;;;;;;9.60;4.08;;;;;;;22.02;64.48;100504.88;125748;1093;22771;-66
2021/06/27 08:21:00;;;;;;;11.33;4.53;;;;;;;22.04;63.98;100505.08;125876;1093;22765;-64
2021/06/27 08:23:31;;;;;;;10.07;4.30;;;;;;;22.07;63.74;100503.22;125741;1093;26473;-65
2021/06/27 08:26:06;;;;;;;10.95;4.60;;;;;;;22.13;63.12;100501.00;125652;1093;22790;-64
2021/06/27 08:28:37;;;;;;;14.13;4.38;;;;;;;22.18;62.41;100505.80;125802;1093;22865;-65
2021/06/27 08:31:09;;;;;;;8.25;3.50;;;;;;;22.22;62.41;100494.84;125465;1093;22903;-65
2021/06/27 08:33:41;;;;;;;12.63;3.03;;;;;;;22.27;60.98;100500.39;126041;1093;22767;-66
2021/06/27 08:36:12;;;;;;;9.43;3.80;;;;;;;22.32;61.54;100496.66;126722;1093;25581;-64
2021/06/27 08:38:44;;;;;;;10.03;3.78;;;;;;;22.36;60.59;100499.91;125681;1093;27201;-66
2021/06/27 08:41:18;;;;;;;13.23;4.50;;;;;;;22.38;61.09;100496.50;125697;1093;22797;-64
2021/06/27 08:43:49;;;;;;;9.65;3.68;;;;;;;22.41;60.54;100499.00;125820;1093;26571;-65
2021/06/27 08:46:23;;;;;;;7.67;3.30;;;;;;;22.50;59.76;100489.21;125687;1092;25681;-64
2021/06/27 08:48:59;;;;;;;8.17;3.07;;;;;;;22.53;59.73;100488.11;125792;1093;22787;-64
2021/06/27 08:51:39;;;;;;;10.37;3.03;;;;;;;22.57;58.91;100490.59;125916;1093;24429;-63
2021/06/27 08:54:12;;;;;;;;;;;;;;;22.62;58.87;100481.16;126160;1093;22787;-64
2021/06/27 08:56:43;;;;;;;10.70;3.98;;;;;;;22.66;58.18;100490.88;125734;1093;21457;-63
2021/06/27 08:59:15;;;;;;;9.45;3.43;;;;;;;22.71;57.79;100489.98;125721;1093;25871;-63
2021/06/27 09:01:48;;;;;;;7.93;3.55;;;;;;;22.70;58.00;100491.29;125586;1093;22761;-65
2021/06/27 09:04:22;;;;;;;9.15;3.00;;;;;;;22.77;57.63;100489.83;126094;1093;22794;-64
2021/06/27 09:06:56;;;;;;;8.00;3.08;;;;;;;22.80;57.00;100488.72;126033;1093;25018;-64
2021/06/27 09:09:27;;;;;;;11.65;4.10;;;;;;;22.84;57.41;100489.13;126081;1093;22797;-64
2021/06/27 09:12:05;;;;;;;7.40;3.40;;;;;;;22.92;57.47;100478.55;125676;1093;25851;-64
2021/06/27 09:14:38;;;;;;;10.07;3.60;;;;;;;23.03;56.60;100481.09;125932;1093;26235;-65
2021/06/27 09:17:15;;;;;;;7.50;3.30;;;;;;;23.11;57.41;100473.36;125804;1091;24541;-65
2021/06/27 09:20:08;;;;;;;9.70;3.45;;;;;;;23.23;55.86;100472.48;125360;1093;52936;-64
2021/06/27 09:22:41;;;;;;;10.65;3.65;;;;;;;23.31;56.20;100472.50;126234;1093;22800;-63
2021/06/27 09:25:25;;;;;;;9.90;3.50;;;;;;;23.39;56.19;100464.02;127052;1093;22884;-67
2021/06/27 09:28:10;;;;;;;10.35;3.53;;;;;;;23.48;55.67;100467.11;126962;1092;22857;-70
2021/06/27 09:30:45;;;;;;;9.50;3.03;;;;;;;23.58;55.13;100461.63;129695;1093;22474;-69
2021/06/27 09:33:21;;;;;;;7.30;3.10;;;;;;;23.63;55.01;100460.70;126561;1093;22818;-70
2021/06/27 09:35:58;;;;;;;8.63;2.25;;;;;;;23.69;55.07;100458.44;126690;1092;22845;-72
2021/06/27 09:38:34;;;;;;;5.73;2.40;;;;;;;23.75;54.61;100456.17;126630;1092;22781;-68
2021/06/27 09:41:08;;;;;;;8.33;2.93;;;;;;;23.78;54.07;100447.24;126724;1092;26239;-69
2021/06/27 09:43:41;;;;;;;8.15;2.63;;;;;;;23.83;54.20;100446.31;127109;1093;48648;-68
2021/06/27 09:46:13;;;;;;;7.98;2.93;;;;;;;23.91;52.76;100449.95;126642;1093;27683;-68
2021/06/27 09:48:57;;;;;;;11.55;2.65;;;;;;;23.94;53.54;100445.94;126429;1093;22851;-67
2021/06/27 09:51:30;;;;;;;7.93;2.75;;;;;;;24.04;52.83;100443.34;126466;1093;22845;-69
2021/06/27 09:54:02;;;;;;;7.43;2.60;;;;;;;24.04;51.31;100449.05;126819;1093;22799;-68
2021/06/27 09:56:39;;;;;;;7.98;3.08;;;;;;;24.11;52.27;100453.98;126410;1093;22770;-69
2021/06/27 09:59:13;;;;;;;8.80;2.60;;;;;;;24.14;51.74;100449.23;126392;1093;22858;-70
2021/06/27 10:01:45;;;;;;;7.73;2.10;;;;;;;24.17;51.54;100443.14;126436;1092;22905;-69
2021/06/27 10:04:28;;;;;;;5.80;2.33;;;;;;;24.17;50.92;100446.00;126525;1093;22763;-71
2021/06/27 10:07:01;;;;;;;10.08;2.90;;;;;;;24.24;51.22;100450.19;126499;1093;22790;-70
2021/06/27 10:09:35;;;;;;;8.88;2.80;;;;;;;24.33;50.87;100449.63;126395;1093;22805;-68
2021/06/27 10:12:08;;;;;;;6.05;2.05;;;;;;;24.38;49.73;100443.73;126445;1093;23821;-68
2021/06/27 10:14:58;;;;;;;6.93;2.40;;;;;;;24.37;50.79;100441.45;126817;1093;26283;-71
2021/06/27 10:17:31;;;;;;;8.38;2.13;;;;;;;24.47;49.86;100442.40;126417;1093;27313;-68
2021/06/27 10:20:02;;;;;;;6.73;2.00;;;;;;;24.53;50.40;100449.44;126300;1093;22797;-67
2021/06/27 10:22:35;;;;;;;6.50;2.10;;;;;;;24.62;50.10;100448.11;126363;1093;22790;-68
2021/06/27 10:25:09;;;;;;;6.28;1.85;;;;;;;24.70;48.62;100449.63;126476;1093;27629;-67
2021/06/27 10:27:42;;;;;;;5.58;1.88;;;;;;;24.70;48.96;100452.48;126510;1093;22764;-66
2021/06/27 10:30:17;;;;;;;6.35;2.10;;;;;;;24.66;47.66;100445.63;126996;1092;27079;-68
2021/06/27 10:32:49;;;;;;;6.08;1.88;;;;;;;24.63;46.52;100449.61;126702;1093;22792;-69
2021/06/27 10:35:22;;;;;;;6.03;2.10;;;;;;;24.64;48.12;100448.29;126627;1092;22767;-68
2021/06/27 10:37:56;;;;;;;6.48;1.90;;;;;;;24.65;47.83;100442.00;126411;1093;22774;-69
2021/06/27 10:40:27;;;;;;;5.78;1.75;;;;;;;24.63;46.20;100444.67;126565;1093;22692;-67
2021/06/27 10:43:01;;;;;;;5.33;1.70;;;;;;;24.59;46.89;100429.25;125616;1093;25874;-66
2021/06/27 10:46:02;;;;;;;5.23;1.88;;;;;;;24.56;46.86;100424.70;128222;1092;22826;-69
2021/06/27 10:48:42;;;;;;;4.30;1.58;;;;;;;24.66;47.42;100429.27;126558;1092;24324;-68
2021/06/27 10:51:14;;;;;;;4.78;1.78;;;;;;;24.75;46.24;100437.25;126645;1093;22854;-67
2021/06/27 10:54:16;;;;;;;6.90;2.05;;;;;;;24.72;45.50;100438.39;126726;1093;23455;-66
2021/06/27 10:57:03;;;;;;;5.70;1.70;;;;;;;24.64;45.76;100434.76;126373;1093;22799;-66
2021/06/27 11:00:02;;;;;;;7.60;1.93;;;;;;;24.66;45.40;100434.97;126511;1092;22828;-67
2021/06/27 11:02:41;;;;;;;10.13;2.35;;;;;;;24.57;45.16;100424.13;126381;1092;22774;-67
2021/06/27 11:05:33;;;;;;;;;;;;;;;24.49;44.65;100425.46;126642;1092;22767;-66
2021/06/27 11:08:05;;;;;;;6.00;1.90;;;;;;;24.47;44.99;100430.98;125671;1093;21496;-68
2021/06/27 11:10:39;;;;;;;14.40;2.23;;;;;;;24.48;45.21;100426.81;125571;1093;22808;-69
2021/06/27 11:13:19;;;;;;;5.97;1.70;;;;;;;24.56;45.64;100419.73;125848;1093;25848;-68
2021/06/27 11:16:09;;;;;;;8.38;1.78;;;;;;;24.65;45.24;100424.11;127981;1093;52326;-68
2021/06/27 11:18:43;;;;;;;8.58;1.98;;;;;;;24.72;44.76;100423.34;126080;1092;26242;-67
2021/06/27 11:21:38;;;;;;;4.48;1.58;;;;;;;24.73;44.80;100419.94;126404;1093;22848;-67
2021/06/27 11:24:33;;;;;;;6.38;1.73;;;;;;;24.84;45.00;100418.78;125559;1092;22779;-66
2021/06/27 11:27:06;;;;;;;5.48;1.80;;;;;;;24.88;44.56;100430.56;126657;1093;23325;-67
2021/06/27 11:29:58;;;;;;;6.55;2.08;;;;;;;24.86;44.74;100424.67;125936;1092;25871;-67
2021/06/27 11:32:50;;;;;;;5.28;1.65;;;;;;;24.82;44.68;100430.78;125809;1093;22763;-68
2021/06/27 11:35:42;;;;;;;6.78;1.98;;;;;;;24.76;44.89;100420.89;126630;1092;22805;-67
2021/06/27 11:38:43;;;;;;;3.98;1.73;;;;;;;24.79;44.42;100423.34;126406;1093;24468;-70